Time;durP1;ratioP1;P1;durP2;ratioP2;P2;SDS_P1;SDS_P2;PMS_P1;PMS_P2;Temp;Humidity;BMP_temperature;BMP_pressure;BME280_temperature;BME280_humidity;BME280_pressure;Samples;Min_cycle;Max_cycle;Signal;HPM_P1;HPM_P2
2021/08/26 00:00:12;;;;;;;18.70;11.68;;;;;;;10.18;76.58;96236.67;128035;1093;23572;-81
2021/08/26 00:06:08;;;;;;;18.25;11.53;;;;;;;10.20;76.41;96230.01;127627;1095;23001;-82
2021/08/26 00:08:40;;;;;;;17.50;11.93;;;;;;;10.21;76.15;96220.20;127694;1096;22912;-82
2021/08/26 00:11:12;;;;;;;17.48;11.35;;;;;;;10.23;76.12;96223.38;127728;1093;24002;-83
2021/08/26 00:13:46;;;;;;;20.90;12.18;;;;;;;10.25;76.08;96223.88;127969;1093;26302;-81
2021/08/26 00:16:19;;;;;;;18.88;12.00;;;;;;;10.25;75.95;96215.93;127931;1093;28005;-82
2021/08/26 00:18:51;;;;;;;21.20;11.53;;;;;;;10.24;75.91;96209.06;127995;1093;26270;-82
2021/08/26 00:21:23;;;;;;;18.97;11.73;;;;;;;10.23;76.09;96208.27;127916;1093;24174;-81
2021/08/26 00:23:54;;;;;;;19.55;11.60;;;;;;;10.22;75.83;96211.20;127944;1093;22747;-82
2021/08/26 00:26:26;;;;;;;17.60;11.30;;;;;;;10.20;76.04;96208.03;127961;1093;22858;-82
2021/08/26 00:28:57;;;;;;;18.30;11.80;;;;;;;10.19;75.90;96209.11;127970;1092;37565;-82
2021/08/26 00:31:29;;;;;;;19.08;11.80;;;;;;;10.18;75.99;96202.23;127932;1093;26548;-82
2021/08/26 00:34:00;;;;;;;17.25;11.68;;;;;;;10.18;75.91;96199.58;127568;1092;26524;-82
2021/08/26 00:36:32;;;;;;;17.37;11.10;;;;;;;10.17;75.80;96201.45;127934;1093;23373;-82
2021/08/26 00:39:03;;;;;;;20.65;11.55;;;;;;;10.17;75.81;96192.71;127940;1092;25857;-82
2021/08/26 00:41:36;;;;;;;17.70;11.73;;;;;;;10.21;75.66;96193.70;127952;1093;24043;-83
2021/08/26 00:44:08;;;;;;;18.43;11.95;;;;;;;10.22;75.74;96187.37;127961;1093;24227;-82
2021/08/26 00:46:42;;;;;;;17.13;10.90;;;;;;;10.23;75.57;96175.70;128030;1093;23633;-82
2021/08/26 00:49:16;;;;;;;17.50;10.25;;;;;;;10.27;75.55;96184.64;128010;1093;25498;-82
2021/08/26 00:51:48;;;;;;;19.03;10.50;;;;;;;10.29;75.56;96185.16;128046;1093;22830;-82
2021/08/26 00:54:19;;;;;;;17.00;10.75;;;;;;;10.32;75.44;96179.28;127986;1093;23433;-82
2021/08/26 00:56:51;;;;;;;18.08;10.78;;;;;;;10.35;75.21;96179.49;127963;1093;55687;-82
2021/08/26 00:59:23;;;;;;;16.83;10.28;;;;;;;10.36;75.08;96165.17;127591;1093;28400;-82
2021/08/26 01:02:01;;;;;;;15.80;10.65;;;;;;;10.41;75.06;96172.25;127606;1093;23655;-83
2021/08/26 01:04:43;;;;;;;14.60;9.95;;;;;;;10.45;74.77;96164.53;127982;1093;22830;-82
2021/08/26 01:07:25;;;;;;;15.30;10.43;;;;;;;10.45;74.79;96167.97;127595;1093;25952;-81
2021/08/26 01:10:03;;;;;;;16.70;10.63;;;;;;;10.44;74.69;96158.45;127771;1093;25887;-81
2021/08/26 01:12:39;;;;;;;19.50;10.53;;;;;;;10.40;74.57;96154.77;127948;1093;25193;-82
2021/08/26 01:15:11;;;;;;;17.20;10.33;;;;;;;10.36;74.86;96159.09;128014;1093;26631;-81
2021/08/26 01:17:47;;;;;;;15.80;10.23;;;;;;;10.34;74.56;96155.94;128017;1093;22796;-80
2021/08/26 01:20:19;;;;;;;18.53;11.23;;;;;;;10.30;74.60;96155.73;127989;1092;23758;-81
2021/08/26 01:22:51;;;;;;;16.68;10.30;;;;;;;10.30;74.76;96149.64;127917;1093;26371;-82
2021/08/26 01:25:27;;;;;;;15.75;10.40;;;;;;;10.28;74.97;96152.59;127980;1093;42764;-81
2021/08/26 01:28:03;;;;;;;15.97;11.10;;;;;;;10.23;74.87;96142.05;127980;1093;26962;-82
2021/08/26 01:30:38;;;;;;;14.10;9.93;;;;;;;10.23;74.90;96144.69;127947;1093;27573;-81
2021/08/26 01:33:10;;;;;;;16.65;10.03;;;;;;;10.22;75.06;96140.47;127679;1093;27967;-82
2021/08/26 01:35:41;;;;;;;17.58;9.80;;;;;;;10.21;75.16;96140.73;128051;1093;28095;-83
2021/08/26 01:38:20;;;;;;;15.63;10.20;;;;;;;10.21;75.11;96133.60;127600;1093;33577;-81
2021/08/26 01:40:54;;;;;;;16.20;9.75;;;;;;;10.20;75.23;96136.51;127561;1093;23569;-82
2021/08/26 01:43:26;;;;;;;17.53;10.55;;;;;;;10.22;75.41;96131.73;127948;1093;27940;-81
2021/08/26 01:45:58;;;;;;;15.45;10.25;;;;;;;10.22;75.23;96127.22;127979;1092;24141;-81
2021/08/26 01:48:30;;;;;;;13.85;9.83;;;;;;;10.24;75.46;96118.98;127968;1093;22971;-82
2021/08/26 01:51:02;;;;;;;15.35;9.83;;;;;;;10.26;75.28;96130.08;127561;1093;45214;-82
2021/08/26 01:53:33;;;;;;;17.10;10.03;;;;;;;10.25;75.07;96121.34;127970;1093;26436;-82
2021/08/26 01:56:05;;;;;;;14.35;10.08;;;;;;;10.23;75.05;96122.71;127950;1093;27669;-81
2021/08/26 01:58:37;;;;;;;16.78;10.58;;;;;;;10.20;75.34;96123.27;127993;1093;24335;-81
2021/08/26 02:01:09;;;;;;;16.75;10.10;;;;;;;10.18;75.16;96118.25;128031;1093;31797;-82
2021/08/26 02:03:41;;;;;;;14.65;8.83;;;;;;;10.15;75.46;96107.45;128013;1093;29576;-82
2021/08/26 02:06:12;;;;;;;16.38;10.13;;;;;;;10.11;75.38;96118.59;128045;1094;22708;-82
2021/08/26 02:08:44;;;;;;;14.55;9.75;;;;;;;10.09;75.72;96109.38;128002;1093;23085;-82
2021/08/26 02:11:15;;;;;;;16.48;10.48;;;;;;;10.05;75.58;96111.03;127624;1093;22809;-82
2021/08/26 02:13:46;;;;;;;15.25;9.48;;;;;;;10.03;75.74;96108.67;127979;1093;24361;-82
2021/08/26 02:16:18;;;;;;;15.05;9.58;;;;;;;9.99;75.65;96097.08;127952;1093;27515;-82
2021/08/26 02:18:49;;;;;;;16.18;9.73;;;;;;;9.95;75.75;96100.56;127962;1093;26302;-81
2021/08/26 02:21:21;;;;;;;16.10;10.10;;;;;;;9.93;75.95;96092.13;127591;1093;28191;-81
2021/08/26 02:23:54;;;;;;;15.43;9.28;;;;;;;9.92;75.92;96090.55;127772;1093;22829;-82
2021/08/26 02:26:26;;;;;;;14.28;9.25;;;;;;;9.94;75.85;96078.59;127612;1093;25972;-82
2021/08/26 02:28:57;;;;;;;14.10;9.50;;;;;;;9.95;76.05;96074.09;127585;1093;25095;-82
2021/08/26 02:31:29;;;;;;;16.83;10.63;;;;;;;9.98;76.04;96069.00;127616;1093;23428;-82
2021/08/26 02:34:01;;;;;;;12.93;8.15;;;;;;;10.01;75.88;96068.45;127951;1093;24703;-82
2021/08/26 02:36:32;;;;;;;17.33;10.38;;;;;;;10.01;75.79;96065.80;127967;1093;24707;-82
2021/08/26 02:39:03;;;;;;;17.05;10.10;;;;;;;10.01;75.76;96060.50;127972;1092;24331;-82
2021/08/26 02:41:35;;;;;;;15.45;9.25;;;;;;;10.09;75.99;96064.34;127967;1093;25229;-82
2021/08/26 02:44:07;;;;;;;16.33;9.60;;;;;;;10.14;75.66;96061.64;127603;1093;22979;-81
2021/08/26 02:46:38;;;;;;;15.78;9.58;;;;;;;10.19;75.74;96058.91;127959;1093;22879;-82
2021/08/26 02:49:10;;;;;;;17.30;9.50;;;;;;;10.22;75.62;96046.97;128039;1092;25745;-82
2021/08/26 02:51:41;;;;;;;15.83;9.93;;;;;;;10.22;75.57;96044.32;128031;1093;26325;-82
2021/08/26 02:54:13;;;;;;;16.13;9.25;;;;;;;10.24;75.43;96045.59;127614;1093;27450;-81
2021/08/26 02:56:44;;;;;;;14.80;9.05;;;;;;;10.26;75.48;96037.36;127602;1093;23350;-82
2021/08/26 02:59:15;;;;;;;16.30;9.95;;;;;;;10.23;75.34;96032.64;127950;1093;22954;-81
2021/08/26 03:01:47;;;;;;;15.28;9.40;;;;;;;10.22;75.22;96031.86;127611;1093;22795;-81
2021/08/26 03:04:18;;;;;;;12.68;7.73;;;;;;;10.22;75.36;96028.42;127582;1093;27764;-83
2021/08/26 03:06:49;;;;;;;15.60;9.53;;;;;;;10.23;75.22;96025.48;128040;1093;27374;-82
2021/08/26 03:09:21;;;;;;;14.00;8.35;;;;;;;10.26;75.29;96024.11;127987;1092;29218;-82
2021/08/26 03:11:53;;;;;;;14.23;8.63;;;;;;;10.30;75.34;96033.86;127931;1092;72325;-82
2021/08/26 03:14:24;;;;;;;14.18;8.50;;;;;;;10.33;75.32;96017.38;127762;1093;28138;-83
2021/08/26 03:16:56;;;;;;;13.05;7.93;;;;;;;10.37;75.13;96017.58;127557;1093;27232;-81
2021/08/26 03:19:27;;;;;;;13.98;9.30;;;;;;;10.41;75.05;96010.61;127619;1093;25033;-82
2021/08/26 03:21:58;;;;;;;13.25;7.75;;;;;;;10.40;74.89;96017.77;128000;1093;22825;-82
2021/08/26 03:24:30;;;;;;;14.73;8.30;;;;;;;10.42;74.92;96012.21;127967;1093;23766;-82
2021/08/26 03:27:01;;;;;;;14.73;9.28;;;;;;;10.42;74.88;96004.26;127541;1092;23193;-82
2021/08/26 03:29:32;;;;;;;14.90;9.08;;;;;;;10.40;75.03;96001.88;127948;1093;24688;-82
2021/08/26 03:32:04;;;;;;;15.50;8.38;;;;;;;10.41;74.82;95992.06;127570;1092;24050;-82
2021/08/26 03:34:44;;;;;;;13.50;7.78;;;;;;;10.40;75.05;95995.79;127502;1091;28754;-81
2021/08/26 03:37:15;;;;;;;14.45;9.00;;;;;;;10.38;75.11;95996.08;127968;1093;28722;-81
2021/08/26 03:39:47;;;;;;;13.33;7.93;;;;;;;10.37;75.20;95999.81;127603;1093;25803;-82
2021/08/26 03:42:18;;;;;;;14.78;8.20;;;;;;;10.35;75.02;95999.32;127581;1093;34084;-82
2021/08/26 03:44:50;;;;;;;14.98;8.20;;;;;;;10.35;75.11;95994.02;127965;1093;27655;-82
2021/08/26 03:47:21;;;;;;;16.68;8.90;;;;;;;10.36;75.11;96000.11;127538;1093;36277;-82
2021/08/26 03:49:52;;;;;;;13.75;8.10;;;;;;;10.39;75.18;95988.92;127611;1093;24008;-82
2021/08/26 03:52:24;;;;;;;17.03;8.90;;;;;;;10.43;75.12;95989.14;127540;1093;26120;-82
2021/08/26 03:54:55;;;;;;;13.80;8.45;;;;;;;10.47;75.11;95992.77;127605;1093;31134;-82
2021/08/26 03:57:26;;;;;;;14.27;8.10;;;;;;;10.51;75.10;95991.89;127600;1093;25101;-82
2021/08/26 03:59:58;;;;;;;12.63;8.20;;;;;;;10.54;74.85;95986.00;127698;1093;24871;-82
2021/08/26 04:02:30;;;;;;;14.55;8.25;;;;;;;10.59;74.91;95977.97;127586;1093;24875;-82
2021/08/26 04:05:02;;;;;;;13.35;8.03;;;;;;;10.62;75.00;95973.95;127582;1093;26553;-82
2021/08/26 04:07:33;;;;;;;13.75;8.15;;;;;;;10.64;74.99;95969.92;127610;1093;24131;-82
2021/08/26 04:10:05;;;;;;;12.68;7.60;;;;;;;10.72;74.96;95973.77;127599;1093;41914;-81
2021/08/26 04:12:37;;;;;;;12.87;8.17;;;;;;;10.80;74.88;95972.28;127676;1093;25880;-82
2021/08/26 04:15:10;;;;;;;14.15;8.20;;;;;;;10.88;74.72;95964.43;128023;1093;46334;-82
2021/08/26 04:17:41;;;;;;;15.53;8.40;;;;;;;11.01;74.55;95954.90;127839;1093;22968;-82
2021/08/26 04:20:14;;;;;;;13.63;7.88;;;;;;;11.19;74.38;95963.81;127628;1093;22870;-81
2021/08/26 04:22:45;;;;;;;13.58;8.48;;;;;;;11.75;73.91;95962.58;127522;1093;31135;-82
2021/08/26 04:25:16;;;;;;;13.47;8.40;;;;;;;12.49;73.13;95962.91;127951;1093;27169;-82
2021/08/26 04:27:48;;;;;;;12.15;8.03;;;;;;;12.58;71.57;95954.98;127661;1093;22818;-82
2021/08/26 04:30:20;;;;;;;13.43;8.05;;;;;;;12.25;71.25;95959.83;127970;1093;26720;-82
2021/08/26 04:32:51;;;;;;;15.73;8.88;;;;;;;12.00;71.44;95961.23;127593;1093;34075;-82
2021/08/26 04:35:22;;;;;;;14.00;8.50;;;;;;;11.83;71.77;95956.59;127922;1093;27593;-82
2021/08/26 04:37:54;;;;;;;16.30;8.43;;;;;;;11.71;71.79;95958.97;127546;1093;27018;-82
2021/08/26 04:40:25;;;;;;;12.13;7.73;;;;;;;11.63;71.86;95965.77;127669;1092;25037;-82
2021/08/26 04:42:57;;;;;;;15.38;8.35;;;;;;;11.54;72.08;95956.94;127535;1092;84559;-82
2021/08/26 04:45:29;;;;;;;12.68;7.10;;;;;;;11.51;72.12;95962.84;127988;1093;25467;-82
2021/08/26 04:48:00;;;;;;;13.05;7.80;;;;;;;11.49;72.30;95962.37;127949;1093;41131;-82
2021/08/26 04:50:32;;;;;;;13.38;8.30;;;;;;;11.46;72.50;95960.31;127595;1093;25139;-82
2021/08/26 04:53:03;;;;;;;13.88;7.55;;;;;;;11.44;72.50;95962.48;127939;1092;25593;-82
2021/08/26 04:55:35;;;;;;;15.15;8.18;;;;;;;11.44;72.58;95951.88;127585;1093;48582;-81
2021/08/26 04:58:06;;;;;;;13.60;7.70;;;;;;;11.44;72.67;95944.69;127659;1093;26409;-82
2021/08/26 05:00:39;;;;;;;10.18;6.95;;;;;;;11.42;72.70;95952.17;127978;1093;30922;-82
2021/08/26 05:03:12;;;;;;;13.03;7.58;;;;;;;11.40;72.79;95943.73;127560;1093;26277;-82
2021/08/26 05:05:44;;;;;;;14.40;8.18;;;;;;;11.40;72.69;95956.19;127540;1093;32570;-82
2021/08/26 05:08:15;;;;;;;13.45;7.93;;;;;;;11.42;72.95;95946.86;127600;1093;22965;-81
2021/08/26 05:10:47;;;;;;;10.48;6.85;;;;;;;11.44;73.02;95943.91;127581;1093;25686;-81
2021/08/26 05:13:18;;;;;;;11.58;6.75;;;;;;;11.47;73.07;95951.27;127616;1093;24916;-81
2021/08/26 05:15:49;;;;;;;13.00;7.90;;;;;;;11.48;73.13;95948.31;127983;1093;26834;-82
2021/08/26 05:18:21;;;;;;;14.18;7.50;;;;;;;11.51;73.23;95946.92;127694;1093;23333;-83
2021/08/26 05:20:52;;;;;;;13.58;7.73;;;;;;;11.51;73.24;95954.88;127967;1093;26144;-81
2021/08/26 05:23:24;;;;;;;10.93;7.38;;;;;;;11.55;73.47;95953.22;127618;1093;23258;-83
2021/08/26 05:25:55;;;;;;;13.00;7.00;;;;;;;11.56;73.57;95941.52;127557;1093;25774;-83
2021/08/26 05:28:26;;;;;;;11.30;6.50;;;;;;;11.62;73.54;95948.27;127597;1093;23378;-82
2021/08/26 05:30:58;;;;;;;11.85;6.68;;;;;;;11.66;73.48;95946.57;127749;1093;25903;-82
2021/08/26 05:33:29;;;;;;;12.80;5.90;;;;;;;11.72;73.40;95949.91;128003;1093;23477;-81
2021/08/26 05:36:01;;;;;;;11.75;6.55;;;;;;;11.74;73.54;95940.55;127596;1093;24113;-81
2021/08/26 05:38:32;;;;;;;13.03;6.50;;;;;;;11.79;73.62;95945.77;127568;1093;25737;-81
2021/08/26 05:41:04;;;;;;;11.70;6.30;;;;;;;11.83;73.83;95940.66;127571;1093;27774;-81
2021/08/26 05:43:35;;;;;;;8.45;5.68;;;;;;;11.88;73.99;95941.31;127603;1092;22793;-81
2021/08/26 05:46:07;;;;;;;9.38;5.95;;;;;;;11.94;73.94;95936.65;127604;1093;27332;-82
2021/08/26 05:48:39;;;;;;;12.70;6.98;;;;;;;12.00;73.96;95934.67;127833;1092;25006;-82
2021/08/26 05:51:10;;;;;;;12.48;7.10;;;;;;;12.03;73.69;95931.40;128053;1092;23133;-82
2021/08/26 05:53:42;;;;;;;11.67;7.23;;;;;;;12.01;73.80;95930.92;127959;1093;29379;-81
2021/08/26 05:56:13;;;;;;;11.40;6.48;;;;;;;11.97;73.44;95933.41;127606;1093;24570;-81
2021/08/26 05:58:44;;;;;;;15.20;7.13;;;;;;;11.96;73.28;95933.69;127596;1093;26273;-81
2021/08/26 06:01:23;;;;;;;10.73;6.93;;;;;;;11.92;73.15;95933.52;127646;1093;25901;-81
2021/08/26 06:03:54;;;;;;;11.95;6.93;;;;;;;11.89;72.88;95929.59;127547;1093;42505;-82
2021/08/26 06:06:26;;;;;;;13.90;7.93;;;;;;;11.85;72.90;95938.48;127908;1093;26022;-82
2021/08/26 06:08:58;;;;;;;14.53;7.13;;;;;;;11.81;72.77;95945.46;127969;1093;29923;-82
2021/08/26 06:11:30;;;;;;;14.48;8.18;;;;;;;11.75;72.92;95939.47;127956;1093;25549;-83
2021/08/26 06:14:02;;;;;;;13.53;7.45;;;;;;;11.70;73.25;95947.56;127957;1092;27476;-83
2021/08/26 06:16:34;;;;;;;15.05;7.68;;;;;;;11.61;73.82;95944.05;127687;1093;24408;-83
2021/08/26 06:19:06;;;;;;;15.13;7.73;;;;;;;11.55;74.13;95942.60;127627;1093;30720;-82
2021/08/26 06:21:37;;;;;;;12.65;7.75;;;;;;;11.51;74.56;95939.74;127963;1093;25610;-82
2021/08/26 06:24:09;;;;;;;13.18;8.50;;;;;;;11.49;74.92;95946.44;127681;1093;27449;-82
2021/08/26 06:26:41;;;;;;;15.28;8.43;;;;;;;11.49;75.13;95941.13;128021;1093;23416;-82
2021/08/26 06:29:13;;;;;;;13.05;7.95;;;;;;;11.44;75.56;95935.95;127943;1093;27148;-81
2021/08/26 06:31:44;;;;;;;12.80;8.15;;;;;;;11.43;75.92;95939.69;127609;1093;29247;-82
2021/08/26 06:34:16;;;;;;;16.03;9.03;;;;;;;11.42;76.16;95940.77;127823;1093;31434;-82
2021/08/26 06:36:47;;;;;;;13.23;8.20;;;;;;;11.41;76.18;95939.20;127962;1093;24209;-82
2021/08/26 06:39:19;;;;;;;12.10;7.50;;;;;;;11.42;76.40;95940.77;127945;1093;30414;-82
2021/08/26 06:41:50;;;;;;;13.25;8.90;;;;;;;11.41;76.48;95933.90;127975;1093;25894;-83
2021/08/26 06:44:22;;;;;;;12.33;7.45;;;;;;;11.40;76.72;95941.08;127945;1093;23765;-82
2021/08/26 06:46:53;;;;;;;13.95;7.93;;;;;;;11.42;77.00;95932.81;127556;1093;25695;-82
2021/08/26 06:49:25;;;;;;;14.25;8.85;;;;;;;11.41;76.95;95939.99;127994;1093;27013;-82
2021/08/26 06:51:57;;;;;;;11.70;8.23;;;;;;;11.45;77.24;95934.86;127575;1093;26551;-82
2021/08/26 06:54:29;;;;;;;12.98;8.63;;;;;;;11.43;77.36;95940.47;127598;1093;30449;-83
2021/08/26 06:57:00;;;;;;;11.43;8.03;;;;;;;11.46;77.44;95944.39;127652;1093;25546;-83
2021/08/26 06:59:32;;;;;;;14.03;7.75;;;;;;;11.46;77.90;95941.73;127543;1093;34006;-82
2021/08/26 07:02:04;;;;;;;11.90;7.60;;;;;;;11.48;78.06;95944.88;127581;1093;25920;-82
2021/08/26 07:04:35;;;;;;;11.48;7.10;;;;;;;11.48;78.10;95926.29;127616;1092;23500;-82
2021/08/26 07:07:07;;;;;;;14.93;7.98;;;;;;;11.45;78.37;95942.82;128002;1093;25838;-82
2021/08/26 07:09:39;;;;;;;13.28;8.43;;;;;;;11.45;78.52;95932.20;128028;1093;25140;-82
2021/08/26 07:12:10;;;;;;;14.35;8.48;;;;;;;11.47;78.68;95938.00;127723;1093;25292;-82
2021/08/26 07:14:42;;;;;;;14.43;8.40;;;;;;;11.46;78.94;95942.52;127730;1093;23983;-82
2021/08/26 07:17:14;;;;;;;13.80;8.53;;;;;;;11.46;78.85;95939.08;127631;1092;24023;-82
2021/08/26 07:19:45;;;;;;;12.88;8.23;;;;;;;11.47;78.91;95933.47;127941;1092;26858;-82
2021/08/26 07:22:17;;;;;;;11.95;7.93;;;;;;;11.45;79.31;95934.86;127590;1093;25683;-82
2021/08/26 07:24:49;;;;;;;13.05;8.98;;;;;;;11.44;79.22;95935.95;127983;1093;23488;-82
2021/08/26 07:27:21;;;;;;;13.05;8.05;;;;;;;11.43;79.41;95932.51;127937;1093;26959;-82
2021/08/26 07:29:53;;;;;;;13.18;7.63;;;;;;;11.44;79.48;95934.08;127930;1093;30814;-82
2021/08/26 07:32:25;;;;;;;12.00;7.80;;;;;;;11.45;79.65;95924.24;127978;1093;23639;-83
2021/08/26 07:34:56;;;;;;;12.88;8.13;;;;;;;11.47;79.47;95925.51;127584;1093;24289;-82
2021/08/26 07:37:28;;;;;;;13.50;8.50;;;;;;;11.51;80.00;95933.65;127745;1093;23499;-82
2021/08/26 07:40:00;;;;;;;14.13;8.93;;;;;;;11.53;80.38;95931.48;127614;1093;26529;-82
2021/08/26 07:42:31;;;;;;;13.20;8.18;;;;;;;11.57;80.76;95938.56;127609;1093;22829;-82
2021/08/26 07:45:04;;;;;;;16.35;8.63;;;;;;;11.65;80.88;95934.38;127562;1093;24936;-82
2021/08/26 07:47:36;;;;;;;13.93;7.58;;;;;;;11.73;81.16;95931.02;127600;1093;34627;-82
2021/08/26 07:50:10;;;;;;;13.80;7.45;;;;;;;11.81;81.15;95932.97;127592;1093;26868;-82
2021/08/26 07:52:42;;;;;;;13.48;7.28;;;;;;;11.87;80.71;95931.77;127689;1093;26913;-82
2021/08/26 07:55:14;;;;;;;11.55;7.45;;;;;;;11.92;80.80;95932.73;127613;1093;23733;-80
2021/08/26 07:57:45;;;;;;;11.63;7.25;;;;;;;11.96;80.82;95920.41;127619;1093;23125;-81
2021/08/26 08:00:17;;;;;;;14.20;8.30;;;;;;;12.00;81.05;95924.05;127969;1093;22807;-82
2021/08/26 08:02:49;;;;;;;11.45;7.20;;;;;;;12.03;81.26;95924.22;127978;1093;28233;-81
2021/08/26 08:05:21;;;;;;;11.20;7.00;;;;;;;12.07;81.23;95924.38;127543;1093;30495;-81
2021/08/26 08:07:52;;;;;;;13.03;7.93;;;;;;;12.11;81.43;95928.02;128031;1093;30884;-81
2021/08/26 08:10:24;;;;;;;10.98;6.70;;;;;;;12.15;81.47;95923.66;127999;1093;23414;-82
2021/08/26 08:12:56;;;;;;;12.73;7.35;;;;;;;12.19;81.53;95919.30;127998;1092;22802;-82
2021/08/26 08:15:27;;;;;;;11.33;6.98;;;;;;;12.24;81.51;95916.50;127976;1093;28705;-81
2021/08/26 08:17:59;;;;;;;10.80;6.45;;;;;;;12.29;82.03;95924.36;127636;1093;39760;-82
2021/08/26 08:20:30;;;;;;;12.80;6.95;;;;;;;12.34;81.36;95920.78;127968;1093;23633;-81
2021/08/26 08:23:02;;;;;;;10.30;6.30;;;;;;;12.38;81.10;95916.41;127607;1093;23443;-82
2021/08/26 08:25:33;;;;;;;12.03;7.38;;;;;;;12.43;80.88;95921.61;127603;1093;24176;-83
2021/08/26 08:28:11;;;;;;;12.30;7.08;;;;;;;12.49;80.69;95920.38;127988;1093;25960;-81
2021/08/26 08:30:44;;;;;;;13.60;6.93;;;;;;;12.56;80.30;95918.07;127642;1093;28965;-83
2021/08/26 08:33:15;;;;;;;10.90;7.03;;;;;;;12.63;80.78;95926.38;127982;1092;24581;-82
2021/08/26 08:35:47;;;;;;;13.55;8.13;;;;;;;12.69;80.28;95919.84;127635;1093;23612;-82
2021/08/26 08:38:19;;;;;;;12.03;7.25;;;;;;;12.77;80.17;95918.28;127587;1093;25096;-81
2021/08/26 08:40:50;;;;;;;12.93;8.25;;;;;;;12.86;80.17;95920.98;127980;1092;26274;-81
2021/08/26 08:43:22;;;;;;;12.28;7.55;;;;;;;12.94;79.77;95913.00;127569;1093;24496;-82
2021/08/26 08:45:56;;;;;;;11.38;7.70;;;;;;;12.99;79.94;95917.41;127564;1093;26177;-82
2021/08/26 08:48:28;;;;;;;13.10;7.63;;;;;;;12.99;79.98;95912.88;127607;1093;25353;-82
2021/08/26 08:51:01;;;;;;;13.80;8.30;;;;;;;13.01;79.70;95912.56;127795;1093;24862;-82
2021/08/26 08:53:32;;;;;;;12.33;7.98;;;;;;;13.00;79.67;95918.98;127931;1092;22880;-82
2021/08/26 08:56:06;;;;;;;12.58;7.68;;;;;;;12.99;79.68;95922.73;127589;1093;30208;-82
2021/08/26 08:58:40;;;;;;;12.05;7.23;;;;;;;12.99;79.58;95928.05;127586;1093;25778;-82
2021/08/26 09:01:15;;;;;;;13.17;8.23;;;;;;;12.97;79.57;95931.03;128026;1093;28055;-82
2021/08/26 09:03:47;;;;;;;11.98;7.10;;;;;;;12.96;79.49;95921.48;127953;1093;27508;-82
2021/08/26 09:06:19;;;;;;;14.18;8.53;;;;;;;12.96;79.43;95920.70;127769;1093;25503;-83
2021/08/26 09:09:05;;;;;;;14.75;9.08;;;;;;;12.99;79.66;95928.05;127588;1092;30202;-82
2021/08/26 09:11:38;;;;;;;17.13;7.88;;;;;;;13.07;80.01;95930.72;127951;1093;33211;-82
2021/08/26 09:14:14;;;;;;;10.68;6.80;;;;;;;13.15;79.70;95933.72;127698;1093;23922;-83
2021/08/26 09:16:47;;;;;;;13.73;8.40;;;;;;;13.20;79.76;95930.92;127578;1093;26018;-81
2021/08/26 09:19:21;;;;;;;12.95;7.00;;;;;;;13.24;79.93;95934.55;127964;1093;24241;-82
2021/08/26 09:21:54;;;;;;;11.23;6.55;;;;;;;13.27;79.74;95942.70;127964;1093;25590;-82
2021/08/26 09:24:42;;;;;;;14.20;7.55;;;;;;;13.29;79.80;95937.84;127575;1093;31671;-82
2021/08/26 09:27:33;;;;;;;11.40;7.45;;;;;;;13.34;80.06;95934.23;127551;1093;38620;-82
2021/08/26 09:30:09;;;;;;;11.88;7.48;;;;;;;13.34;79.96;95932.36;127935;1093;26632;-82
2021/08/26 09:32:43;;;;;;;11.60;6.90;;;;;;;13.40;80.32;95929.56;128028;1093;23833;-82
2021/08/26 09:35:28;;;;;;;12.33;7.25;;;;;;;13.44;80.91;95944.59;127964;1093;64240;-83
2021/08/26 09:38:01;;;;;;;12.00;7.65;;;;;;;13.48;80.81;95931.42;127596;1092;30566;-83
2021/08/26 09:40:42;;;;;;;11.90;6.70;;;;;;;13.54;80.79;95932.86;128015;1093;24119;-82
2021/08/26 09:43:11;;;;;;;;;;;;;;;13.56;80.85;95923.45;127573;1093;40523;-83
2021/08/26 09:45:50;;;;;;;10.97;6.57;;;;;;;13.58;81.40;95933.79;128023;1093;24791;-81
2021/08/26 09:48:21;;;;;;;13.98;7.50;;;;;;;13.67;81.07;95929.25;127962;1093;30149;-83
2021/08/26 09:50:55;;;;;;;10.95;7.15;;;;;;;13.70;80.61;95933.95;127889;1093;68613;-83
2021/08/26 09:53:36;;;;;;;11.40;6.75;;;;;;;13.73;80.82;95925.32;127968;1093;25613;-83
2021/08/26 09:56:09;;;;;;;12.15;7.78;;;;;;;13.68;80.89;95938.03;127616;1091;23667;-83
2021/08/26 09:58:41;;;;;;;11.53;7.25;;;;;;;13.65;80.92;95932.23;128038;1093;22879;-82
2021/08/26 10:01:20;;;;;;;11.58;7.15;;;;;;;13.65;81.26;95936.75;128041;1093;25900;-82
2021/08/26 10:03:52;;;;;;;13.08;7.08;;;;;;;13.60;81.39;95924.38;127614;1093;27245;-82
2021/08/26 10:06:26;;;;;;;11.80;7.48;;;;;;;13.53;81.40;95926.75;127993;1092;23994;-83
2021/08/26 10:08:59;;;;;;;13.48;7.53;;;;;;;13.47;81.66;95927.98;127636;1093;23912;-82
2021/08/26 10:11:32;;;;;;;12.93;7.75;;;;;;;13.46;81.58;95923.75;127635;1092;25140;-82
2021/08/26 10:14:04;;;;;;;13.70;7.40;;;;;;;13.42;81.73;95925.48;127605;1093;25973;-82
2021/08/26 10:16:37;;;;;;;12.03;7.43;;;;;;;13.39;82.34;95931.44;127581;1093;24330;-83
2021/08/26 10:19:09;;;;;;;11.38;6.75;;;;;;;13.33;82.30;95922.80;127631;1093;23846;-84
2021/08/26 10:21:41;;;;;;;10.43;6.10;;;;;;;13.28;82.61;95925.63;128005;1093;24978;-82
2021/08/26 10:24:13;;;;;;;7.43;5.03;;;;;;;13.22;82.16;95918.09;127996;1093;24005;-82
2021/08/26 10:26:50;;;;;;;7.40;4.18;;;;;;;13.16;81.47;95914.00;127730;1093;24324;-82
2021/08/26 10:29:22;;;;;;;7.18;3.73;;;;;;;13.11;81.32;95938.11;127958;1093;25138;-82
2021/08/26 10:32:00;;;;;;;6.50;3.73;;;;;;;13.06;81.13;95934.47;127930;1093;79817;-83
2021/08/26 10:34:33;;;;;;;5.97;3.50;;;;;;;13.03;80.55;95918.35;128004;1093;22855;-83
2021/08/26 10:37:22;;;;;;;6.88;3.75;;;;;;;13.04;81.01;95936.66;127936;1093;33869;-82
2021/08/26 10:39:53;;;;;;;6.30;3.57;;;;;;;13.07;80.99;95940.58;127945;1091;23698;-82
2021/08/26 10:42:47;;;;;;;7.63;3.70;;;;;;;13.08;81.15;95921.64;127961;1092;24211;-83
2021/08/26 10:45:23;;;;;;;8.20;4.33;;;;;;;13.05;81.38;95930.25;127978;1092;48677;-83
2021/08/26 10:48:16;;;;;;;9.70;5.03;;;;;;;13.11;81.68;95936.23;127981;1093;22811;-83
2021/08/26 10:51:05;;;;;;;9.15;5.05;;;;;;;13.16;81.89;95930.74;127569;1093;29877;-82
2021/08/26 10:53:39;;;;;;;8.00;5.27;;;;;;;13.14;82.50;95924.17;127579;1092;22797;-82
2021/08/26 10:56:25;;;;;;;10.85;6.80;;;;;;;13.08;82.62;95934.94;128054;1093;24871;-83
2021/08/26 10:58:58;;;;;;;13.20;7.40;;;;;;;13.08;82.56;95932.28;127663;1093;26461;-84
2021/08/26 11:01:43;;;;;;;14.00;7.55;;;;;;;13.05;82.81;95932.13;127952;1093;31891;-82
2021/08/26 11:04:27;;;;;;;10.18;6.70;;;;;;;13.01;82.71;95921.33;127580;1093;24739;-82
2021/08/26 11:07:00;;;;;;;12.43;7.47;;;;;;;12.94;83.19;95941.48;127601;1093;23083;-83
2021/08/26 11:09:37;;;;;;;12.20;6.05;;;;;;;12.91;83.13;95934.91;127607;1093;23550;-83
2021/08/26 11:12:29;;;;;;;10.43;6.30;;;;;;;12.88;83.49;95924.89;127981;1092;25848;-83
2021/08/26 11:15:03;;;;;;;10.53;6.35;;;;;;;12.86;83.94;95932.41;127712;1093;23244;-82
2021/08/26 11:17:38;;;;;;;9.20;5.65;;;;;;;12.91;83.29;95934.91;127959;1093;24397;-82
2021/08/26 11:20:31;;;;;;;10.45;6.20;;;;;;;12.95;83.40;95930.56;127680;1093;24855;-82
2021/08/26 11:23:15;;;;;;;9.08;5.38;;;;;;;12.96;83.05;95916.16;127601;1093;50011;-83
2021/08/26 11:25:46;;;;;;;8.78;5.20;;;;;;;12.97;83.13;95923.05;128007;1093;27253;-82
2021/08/26 11:28:41;;;;;;;9.65;5.20;;;;;;;13.05;83.67;95927.59;127959;1093;24466;-82
2021/08/26 11:31:25;;;;;;;9.17;5.30;;;;;;;13.12;83.40;95924.48;127938;1093;24385;-82
2021/08/26 11:34:01;;;;;;;9.93;5.53;;;;;;;13.11;83.06;95901.63;127583;1093;24186;-83
2021/08/26 11:36:33;;;;;;;10.70;5.23;;;;;;;13.05;82.70;95919.60;127927;1093;48079;-82
2021/08/26 11:39:05;;;;;;;8.38;4.75;;;;;;;13.02;83.12;95928.21;127930;1093;63919;-81
2021/08/26 11:41:43;;;;;;;9.43;4.93;;;;;;;13.03;83.01;95923.67;127615;1093;31203;-82
2021/08/26 11:44:16;;;;;;;7.90;4.25;;;;;;;13.02;82.58;95933.53;127622;1093;24768;-82
2021/08/26 11:46:48;;;;;;;7.63;4.50;;;;;;;12.99;82.48;95917.41;127974;1093;24420;-82